createdAt,value
2019-04-22T00:00:26.044Z,41.08
2019-04-22T00:03:07.398Z,41.10
2019-04-22T00:06:08.652Z,41.19
2019-04-22T00:09:27.063Z,41.43
2019-04-22T00:12:45.446Z,41.60
2019-04-22T00:15:44.184Z,41.63
2019-04-22T00:19:08.902Z,41.81
2019-04-22T00:22:27.671Z,41.89
2019-04-22T00:25:39.221Z,42.08
2019-04-22T00:28:53.279Z,42.34
2019-04-22T00:32:36.645Z,42.48
2019-04-22T00:35:35.478Z,42.70
2019-04-22T00:38:46.728Z,42.55
2019-04-22T00:42:13.125Z,42.53
2019-04-22T00:45:35.847Z,42.71
2019-04-22T00:49:05.813Z,42.75
2019-04-22T00:52:34.709Z,42.60
2019-04-22T00:56:05.554Z,42.52
2019-04-22T00:59:15.633Z,42.55
2019-04-22T01:02:27.922Z,42.74
2019-04-22T01:05:51.482Z,42.98
2019-04-22T01:12:13.606Z,43.15
2019-04-22T01:15:23.656Z,43.17
2019-04-22T01:18:37.915Z,43.26
2019-04-22T01:21:44.771Z,43.38
2019-04-22T01:24:52.774Z,43.81
2019-04-22T01:27:56.978Z,43.89
2019-04-22T01:30:53.301Z,43.69
2019-04-22T01:33:40.195Z,43.18
2019-04-22T01:36:41.766Z,42.92
2019-04-22T01:39:50.429Z,42.57
2019-04-22T01:43:18.192Z,42.41
2019-04-22T01:46:45.054Z,42.53
2019-04-22T01:50:02.094Z,42.34
2019-04-22T01:53:19.637Z,42.51
2019-04-22T01:56:39.001Z,42.46
2019-04-22T01:59:41.593Z,42.58
2019-04-22T02:02:58.821Z,42.61
2019-04-22T02:06:17.280Z,42.71
2019-04-22T02:09:38.337Z,42.96
2019-04-22T02:12:48.528Z,43.13
2019-04-22T02:16:06.961Z,43.19
2019-04-22T02:19:25.402Z,43.11
2019-04-22T02:23:45.541Z,42.99
2019-04-22T02:27:02.983Z,43.33
2019-04-22T02:30:13.948Z,43.11
